createdAt,value
2016-11-24T00:01:48.738Z,1024
2016-11-24T00:06:52.837Z,1024.1
2016-11-24T00:11:57.265Z,1024.1
2016-11-24T00:17:01.690Z,1024.2
2016-11-24T00:22:06.116Z,1024.2
2016-11-24T00:27:10.204Z,1024.3
2016-11-24T00:32:14.636Z,1024.3
2016-11-24T00:37:18.731Z,1024.3
2016-11-24T00:42:22.825Z,1024.4
2016-11-24T00:47:26.915Z,1024.4
2016-11-24T00:52:31.016Z,1024.5
2016-11-24T00:57:35.102Z,1024.6
2016-11-24T01:02:39.539Z,1024.5
2016-11-24T01:07:43.628Z,1024.5
2016-11-24T01:12:47.720Z,1024.5
2016-11-24T01:17:52.152Z,1024.5
2016-11-24T01:22:56.579Z,1024.6
2016-11-24T01:28:00.677Z,1024.7
2016-11-24T01:33:05.109Z,1024.7
2016-11-24T01:38:09.197Z,1024.8
2016-11-24T01:43:13.627Z,1024.8
2016-11-24T01:48:18.048Z,1024.8
2016-11-24T01:53:22.143Z,1024.8
2016-11-24T01:58:26.237Z,1024.9
2016-11-24T02:03:30.327Z,1024.9
2016-11-24T02:08:34.755Z,1024.9
2016-11-24T02:13:39.525Z,1024.9
2016-11-24T02:18:43.953Z,1025
2016-11-24T02:23:48.043Z,1024.9
2016-11-24T02:28:52.476Z,1024.9
2016-11-24T02:33:56.900Z,1024.9
2016-11-24T02:39:01.669Z,1024.9
2016-11-24T02:44:05.763Z,1024.9
2016-11-24T02:49:10.194Z,1024.9
2016-11-24T02:54:14.281Z,1024.9
2016-11-24T02:59:18.712Z,1025.1
2016-11-24T03:04:23.128Z,1025.1
2016-11-24T03:09:27.555Z,1025.1
2016-11-24T03:14:32.322Z,1025.1
2016-11-24T03:19:36.746Z,1025.2
2016-11-24T03:24:40.837Z,1025.1
2016-11-24T03:29:44.930Z,1025.2
2016-11-24T03:34:49.692Z,1025.2
2016-11-24T03:39:54.115Z,1025.3
2016-11-24T03:44:58.204Z,1025.3
2016-11-24T03:50:02.307Z,1025.3
2016-11-24T03:55:06.395Z,1025.3
2016-11-24T04:00:11.160Z,1025.4
2016-11-24T04:05:15.587Z,1025.4
2016-11-24T04:10:20.676Z,1025.4
2016-11-24T04:15:25.435Z,1025.4
2016-11-24T04:20:30.203Z,1025.4
2016-11-24T04:25:34.631Z,1025.5
2016-11-24T04:30:39.055Z,1025.6
2016-11-24T04:35:43.478Z,1025.6
2016-11-24T04:40:47.903Z,1025.6
2016-11-24T04:45:52.324Z,1025.5
2016-11-24T04:50:56.750Z,1025.6
2016-11-24T04:56:01.176Z,1025.6
2016-11-24T05:01:05.614Z,1025.6
2016-11-24T05:06:10.042Z,1025.7
2016-11-24T05:11:14.136Z,1025.7
2016-11-24T05:16:18.223Z,1025.7
2016-11-24T05:21:22.645Z,1025.7
2016-11-24T05:26:26.730Z,1025.7
2016-11-24T05:31:31.153Z,1025.8
2016-11-24T05:36:35.267Z,1025.8
2016-11-24T05:41:39.690Z,1025.9
2016-11-24T05:46:43.784Z,1025.9
2016-11-24T05:51:48.204Z,1026
2016-11-24T05:56:52.292Z,1026
2016-11-24T06:01:56.384Z,1026
2016-11-24T06:07:00.476Z,1026.1
2016-11-24T06:12:04.564Z,1026.2
2016-11-24T06:17:08.992Z,1026.2
2016-11-24T06:22:13.747Z,1026.3
2016-11-24T06:27:18.209Z,1026.4
2016-11-24T06:32:22.301Z,1026.4
2016-11-24T06:37:26.826Z,1026.5
2016-11-24T06:42:30.927Z,1026.5
2016-11-24T06:47:35.057Z,1026.5
2016-11-24T06:52:39.456Z,1026.6
2016-11-24T06:57:43.560Z,1026.7
2016-11-24T07:02:48.111Z,1026.7
2016-11-24T07:07:52.540Z,1026.8
2016-11-24T07:12:56.656Z,1026.8
2016-11-24T07:18:00.812Z,1026.9
2016-11-24T07:23:04.893Z,1026.9
2016-11-24T07:28:09.318Z,1027
2016-11-24T07:33:13.412Z,1027
2016-11-24T07:38:18.190Z,1027.1
2016-11-24T07:43:22.285Z,1027.1
2016-11-24T07:48:26.374Z,1027.2
2016-11-24T07:53:30.801Z,1027.3
2016-11-24T07:58:35.562Z,1027.3
2016-11-24T08:03:39.656Z,1027.3
2016-11-24T08:08:44.099Z,1027.4
2016-11-24T08:13:48.188Z,1027.4
2016-11-24T08:18:52.609Z,1027.5
2016-11-24T08:23:56.699Z,1027.6
2016-11-24T08:29:00.783Z,1027.7
2016-11-24T08:34:04.881Z,1027.7
2016-11-24T08:39:09.309Z,1027.8
2016-11-24T08:44:13.737Z,1027.8
2016-11-24T08:49:18.167Z,1027.9
2016-11-24T08:54:22.591Z,1027.8
2016-11-24T08:59:27.027Z,1027.9
2016-11-24T09:04:31.117Z,1027.9
2016-11-24T09:09:35.217Z,1027.9
2016-11-24T09:14:39.643Z,1028
2016-11-24T09:19:43.737Z,1027.9
2016-11-24T09:24:48.161Z,1028
2016-11-24T09:29:52.586Z,1028
2016-11-24T09:34:56.690Z,1028
2016-11-24T09:40:01.116Z,1027.9
2016-11-24T09:45:05.541Z,1028
2016-11-24T09:50:09.638Z,1027.9
2016-11-24T09:55:14.059Z,1027.9
2016-11-24T10:00:18.167Z,1027.9
2016-11-24T10:05:22.273Z,1027.9
2016-11-24T10:10:26.710Z,1027.9
2016-11-24T10:15:31.134Z,1027.8
2016-11-24T10:20:35.219Z,1027.8
2016-11-24T10:25:39.663Z,1027.7
2016-11-24T10:30:44.092Z,1027.7
2016-11-24T10:35:48.518Z,1027.7
2016-11-24T10:40:52.612Z,1027.7
2016-11-24T10:45:56.705Z,1027.7
2016-11-24T10:51:01.133Z,1027.7
2016-11-24T10:56:05.231Z,1027.8
2016-11-24T11:01:09.325Z,1027.7
2016-11-24T11:06:13.417Z,1027.7
2016-11-24T11:11:17.513Z,1027.6
2016-11-24T11:16:21.951Z,1027.6
2016-11-24T11:21:26.383Z,1027.5
2016-11-24T11:26:30.474Z,1027.6
2016-11-24T11:31:34.576Z,1027.6
2016-11-24T11:36:39.008Z,1027.6
2016-11-24T11:41:43.141Z,1027.6
2016-11-24T11:46:47.233Z,1027.7
2016-11-24T11:51:51.667Z,1027.6
2016-11-24T11:56:55.766Z,1027.7
2016-11-24T12:01:59.863Z,1027.8
2016-11-24T12:07:03.960Z,1027.7
2016-11-24T12:12:08.388Z,1027.6
2016-11-24T12:17:12.490Z,1027.6
2016-11-24T12:22:16.588Z,1027.6
2016-11-24T12:27:20.684Z,1027.7
2016-11-24T12:32:25.120Z,1027.6
2016-11-24T12:37:29.220Z,1027.6
2016-11-24T12:42:33.997Z,1027.5
2016-11-24T12:47:38.103Z,1027.6
2016-11-24T12:52:42.537Z,1027.5
2016-11-24T12:57:46.964Z,1027.5
2016-11-24T13:02:51.061Z,1027.5
2016-11-24T13:07:55.825Z,1027.4
2016-11-24T13:12:59.918Z,1027.5
2016-11-24T13:18:04.358Z,1027.5
2016-11-24T13:23:08.473Z,1027.5
2016-11-24T13:28:12.567Z,1027.5
2016-11-24T13:33:16.994Z,1027.5
2016-11-24T13:38:21.427Z,1027.4
2016-11-24T13:43:25.523Z,1027.4
2016-11-24T13:48:29.955Z,1027.4
2016-11-24T13:53:34.050Z,1027.5
2016-11-24T13:58:38.479Z,1027.5
2016-11-24T14:03:42.905Z,1027.5
2016-11-24T14:08:47.336Z,1027.5
2016-11-24T14:13:52.450Z,1027.4
2016-11-24T14:18:56.552Z,1027.4
2016-11-24T14:24:00.981Z,1027.5
2016-11-24T14:29:05.413Z,1027.6
2016-11-24T14:34:09.840Z,1027.5
2016-11-24T14:39:13.941Z,1027.4
2016-11-24T14:44:18.368Z,1027.3
2016-11-24T14:49:22.462Z,1027.2
2016-11-24T14:54:26.899Z,1027.2
2016-11-24T14:59:30.992Z,1027.2
2016-11-24T15:04:35.757Z,1027.2
2016-11-24T15:09:40.702Z,1027.2
2016-11-24T15:14:44.869Z,1027.2
2016-11-24T15:19:49.339Z,1027.2
2016-11-24T15:24:53.475Z,1027.3
2016-11-24T15:29:58.338Z,1027.2
2016-11-24T15:35:02.422Z,1027.2
2016-11-24T15:40:06.973Z,1027.1
2016-11-24T15:45:11.071Z,1027.2
2016-11-24T15:50:15.208Z,1027.2
2016-11-24T15:55:19.676Z,1027.3
2016-11-24T16:00:24.155Z,1027.4
2016-11-24T16:05:28.245Z,1027.5
2016-11-24T16:10:33.014Z,1027.6
2016-11-24T16:15:37.219Z,1027.5
2016-11-24T16:20:41.691Z,1027.5
2016-11-24T16:25:45.804Z,1027.6
2016-11-24T16:30:49.893Z,1027.6
2016-11-24T16:35:54.316Z,1027.7
2016-11-24T16:40:58.419Z,1027.8
2016-11-24T16:46:02.509Z,1027.8
2016-11-24T16:51:06.952Z,1027.8
2016-11-24T16:56:11.404Z,1027.8
2016-11-24T17:01:15.838Z,1027.8
2016-11-24T17:06:20.277Z,1027.9
2016-11-24T17:11:24.823Z,1027.8
2016-11-24T17:16:28.924Z,1027.7
2016-11-24T17:21:33.357Z,1027.8
2016-11-24T17:26:37.497Z,1027.7
2016-11-24T17:31:41.691Z,1027.8
2016-11-24T17:36:46.507Z,1027.9
2016-11-24T17:41:50.952Z,1027.9
2016-11-24T17:46:55.056Z,1028
2016-11-24T17:51:59.808Z,1028.1
2016-11-24T17:57:04.578Z,1028
2016-11-24T18:02:09.076Z,1028
2016-11-24T18:07:13.203Z,1027.9
2016-11-24T18:12:17.290Z,1027.8
2016-11-24T18:17:21.392Z,1027.8
2016-11-24T18:22:25.579Z,1027.8
2016-11-24T18:27:29.679Z,1027.8
2016-11-24T18:32:34.448Z,1027.9
2016-11-24T18:37:38.541Z,1028.1
2016-11-24T18:42:42.965Z,1028.1
2016-11-24T18:47:47.073Z,1028.1
2016-11-24T18:52:51.160Z,1028.2
2016-11-24T18:57:55.264Z,1028.3
2016-11-24T19:02:59.350Z,1028.2
2016-11-24T19:08:04.106Z,1028.2
2016-11-24T19:13:08.206Z,1028.2
2016-11-24T19:18:12.641Z,1028.2
2016-11-24T19:23:17.063Z,1028.2
2016-11-24T19:28:21.309Z,1028.3
2016-11-24T19:33:25.622Z,1028.3
2016-11-24T19:38:29.712Z,1028.3
2016-11-24T19:43:33.800Z,1028.3
2016-11-24T19:48:38.222Z,1028.2
2016-11-24T19:53:42.313Z,1028.2
2016-11-24T19:58:46.767Z,1028.3
2016-11-24T20:03:50.860Z,1028.3
2016-11-24T20:08:55.278Z,1028.2
2016-11-24T20:13:59.720Z,1028.4
2016-11-24T20:19:04.156Z,1028.4
2016-11-24T20:24:08.324Z,1028.5
2016-11-24T20:29:12.494Z,1028.4
2016-11-24T20:34:16.947Z,1028.5
2016-11-24T20:39:21.443Z,1028.6
2016-11-24T20:44:25.869Z,1028.7
2016-11-24T20:49:29.975Z,1028.7
2016-11-24T20:54:34.403Z,1028.8
2016-11-24T20:59:38.824Z,1028.7
2016-11-24T21:04:43.593Z,1028.7
2016-11-24T21:09:47.686Z,1028.8
2016-11-24T21:14:51.790Z,1028.8
2016-11-24T21:19:55.901Z,1028.9
2016-11-24T21:25:00.384Z,1028.6
2016-11-24T21:30:04.484Z,1028.6
2016-11-24T21:35:09.239Z,1028.5
2016-11-24T21:40:13.663Z,1028.6
2016-11-24T21:45:17.770Z,1028.7
2016-11-24T21:50:22.200Z,1028.8
2016-11-24T21:55:26.631Z,1028.6
2016-11-24T22:00:30.717Z,1028.5
2016-11-24T22:05:34.809Z,1028.5
2016-11-24T22:10:38.898Z,1028.6
2016-11-24T22:15:42.995Z,1028.7
2016-11-24T22:20:47.422Z,1028.7
2016-11-24T22:25:51.844Z,1028.6
2016-11-24T22:30:55.928Z,1028.6
2016-11-24T22:36:00.035Z,1028.6
2016-11-24T22:41:04.129Z,1028.6
2016-11-24T22:46:08.236Z,1028.6
2016-11-24T22:51:12.317Z,1028.6
2016-11-24T22:56:16.794Z,1028.6
2016-11-24T23:01:20.882Z,1028.4
2016-11-24T23:06:25.569Z,1028.4
2016-11-24T23:11:29.667Z,1028.2
2016-11-24T23:16:33.770Z,1028.1
2016-11-24T23:21:38.198Z,1028.1
2016-11-24T23:26:42.296Z,1028
2016-11-24T23:31:46.730Z,1027.9
2016-11-24T23:36:50.830Z,1027.8
2016-11-24T23:41:54.922Z,1027.7
2016-11-24T23:46:59.020Z,1027.8
2016-11-24T23:52:03.449Z,1027.8
2016-11-24T23:57:07.546Z,1027.9
